Time;durP1;ratioP1;P1;durP2;ratioP2;P2;SDS_P1;SDS_P2;PMS_P1;PMS_P2;Temp;Humidity;BMP_temperature;BMP_pressure;BME280_temperature;BME280_humidity;BME280_pressure;Samples;Min_cycle;Max_cycle;Signal;HPM_P1;HPM_P2
2021/09/01 00:01:31;;;;;;;3.37;3.07;;;;;;;;;;5107303;28;20206;-69
2021/09/01 00:04:01;;;;;;;5.07;3.20;;;;;;;;;;5103384;28;20222;-69
2021/09/01 00:06:29;;;;;;;4.60;2.70;;;;;;;;;;5100394;28;20207;-69
2021/09/01 00:08:57;;;;;;;3.90;2.90;;;;;;;;;;5099900;28;20221;-69
2021/09/01 00:11:25;;;;;;;3.77;3.27;;;;;;;;;;5110577;28;20227;-69
2021/09/01 00:13:53;;;;;;;3.17;2.77;;;;;;;;;;5120534;28;20307;-69
2021/09/01 00:16:28;;;;;;;6.23;3.10;;;;;;;;;;5117854;28;20209;-69
2021/09/01 00:18:56;;;;;;;3.90;3.43;;;;;;;;;;5119476;28;20291;-69
2021/09/01 00:21:25;;;;;;;3.40;3.10;;;;;;;;;;5103173;28;20208;-68
2021/09/01 00:23:53;;;;;;;3.20;2.90;;;;;;;;;;5099913;28;20710;-69
2021/09/01 00:26:21;;;;;;;3.23;2.93;;;;;;;;;;5116757;27;20205;-68
2021/09/01 00:28:49;;;;;;;3.83;3.27;;;;;;;;;;5119977;28;20235;-69
2021/09/01 00:31:19;;;;;;;4.23;3.83;;;;;;;;;;5119368;28;20203;-68
2021/09/01 00:33:47;;;;;;;3.83;3.17;;;;;;;;;;5113593;28;20304;-69
2021/09/01 00:36:15;;;;;;;5.53;3.20;;;;;;;;;;5102616;28;20258;-68
2021/09/01 00:38:45;;;;;;;4.13;3.33;;;;;;;;;;5099137;28;20281;-69
2021/09/01 00:41:13;;;;;;;5.30;3.87;;;;;;;;;;5099548;28;20220;-69
2021/09/01 00:43:41;;;;;;;4.10;3.20;;;;;;;;;;5119803;28;20579;-68
2021/09/01 00:46:09;;;;;;;4.40;2.93;;;;;;;;;;5116474;28;20664;-67
2021/09/01 00:48:37;;;;;;;7.20;3.33;;;;;;;;;;5110021;28;20231;-66
2021/09/01 00:51:05;;;;;;;3.40;3.00;;;;;;;;;;5102336;28;20237;-68
2021/09/01 00:53:34;;;;;;;4.00;3.60;;;;;;;;;;5108059;28;20207;-68
2021/09/01 00:56:03;;;;;;;3.73;3.33;;;;;;;;;;5119561;27;20225;-66
2021/09/01 00:58:36;;;;;;;3.63;3.30;;;;;;;;;;5113582;27;20219;-67
2021/09/01 01:01:15;;;;;;;3.50;3.20;;;;;;;;;;5107729;28;20202;-66
2021/09/01 01:03:46;;;;;;;4.20;3.80;;;;;;;;;;5103480;28;20240;-66
2021/09/01 01:06:14;;;;;;;4.83;3.47;;;;;;;;;;5102841;28;20201;-66
2021/09/01 01:08:42;;;;;;;6.13;3.23;;;;;;;;;;5105475;28;20618;-66
2021/09/01 01:11:15;;;;;;;4.03;3.63;;;;;;;;;;5106563;28;20205;-65
2021/09/01 01:13:43;;;;;;;3.67;3.27;;;;;;;;;;5106542;28;20207;-65
2021/09/01 01:16:11;;;;;;;3.27;2.97;;;;;;;;;;5110729;28;20203;-65
2021/09/01 01:18:40;;;;;;;7.37;3.37;;;;;;;;;;5119442;28;20212;-65
2021/09/01 01:21:08;;;;;;;4.93;3.50;;;;;;;;;;5101755;28;20255;-67
2021/09/01 01:23:36;;;;;;;3.93;3.23;;;;;;;;;;5108437;28;20201;-66
2021/09/01 01:26:06;;;;;;;4.70;3.53;;;;;;;;;;5103564;28;20560;-66
2021/09/01 01:28:34;;;;;;;4.10;3.70;;;;;;;;;;5098464;28;20281;-67
2021/09/01 01:31:02;;;;;;;4.57;3.37;;;;;;;;;;5101143;28;20240;-67
2021/09/01 01:33:30;;;;;;;7.13;3.20;;;;;;;;;;5106519;28;20200;-67
2021/09/01 01:35:58;;;;;;;7.27;3.27;;;;;;;;;;5104271;28;20618;-66
2021/09/01 01:38:26;;;;;;;5.60;3.20;;;;;;;;;;5100227;28;20227;-66
2021/09/01 01:40:54;;;;;;;4.43;4.03;;;;;;;;;;5098169;28;20245;-66
2021/09/01 01:43:23;;;;;;;3.97;3.57;;;;;;;;;;5103603;28;20280;-66
2021/09/01 01:45:51;;;;;;;4.43;3.53;;;;;;;;;;5120050;27;20534;-67
2021/09/01 01:48:19;;;;;;;3.97;3.60;;;;;;;;;;5114170;28;20288;-66
2021/09/01 01:50:48;;;;;;;3.93;3.40;;;;;;;;;;5102135;28;20316;-66
2021/09/01 01:53:16;;;;;;;3.87;3.10;;;;;;;;;;5106230;28;20199;-66
2021/09/01 01:55:44;;;;;;;5.17;3.63;;;;;;;;;;5113617;28;20225;-66
2021/09/01 01:58:12;;;;;;;5.53;3.37;;;;;;;;;;5108811;28;20204;-66
2021/09/01 02:00:41;;;;;;;4.17;3.77;;;;;;;;;;5107995;28;20209;-66
2021/09/01 02:03:09;;;;;;;4.00;3.37;;;;;;;;;;5097630;28;20235;-66
2021/09/01 02:05:37;;;;;;;5.83;3.53;;;;;;;;;;5111233;28;20252;-67
2021/09/01 02:08:06;;;;;;;3.67;3.33;;;;;;;;;;5098428;28;20198;-66
2021/09/01 02:10:34;;;;;;;3.60;3.03;;;;;;;;;;5098211;28;20229;-66
2021/09/01 02:13:02;;;;;;;8.40;5.30;;;;;;;;;;5106463;28;20239;-66
2021/09/01 02:15:30;;;;;;;4.27;3.77;;;;;;;;;;5097692;28;20226;-66
2021/09/01 02:17:59;;;;;;;3.93;3.30;;;;;;;;;;5098086;28;20726;-66
2021/09/01 02:20:27;;;;;;;3.40;3.10;;;;;;;;;;5103864;28;20296;-66
2021/09/01 02:22:55;;;;;;;4.00;3.33;;;;;;;;;;5116719;28;20285;-66
2021/09/01 02:25:26;;;;;;;5.30;3.33;;;;;;;;;;5117928;28;20227;-66
2021/09/01 02:27:54;;;;;;;6.07;3.80;;;;;;;;;;5097395;28;20236;-67
2021/09/01 02:30:23;;;;;;;3.93;3.10;;;;;;;;;;5097086;28;20231;-66
2021/09/01 02:32:51;;;;;;;4.17;3.33;;;;;;;;;;5097568;28;20232;-66
2021/09/01 02:35:20;;;;;;;3.70;3.40;;;;;;;;;;5097005;28;20253;-66
2021/09/01 02:37:52;;;;;;;3.53;3.17;;;;;;;;;;5097276;28;20209;-66
2021/09/01 02:40:20;;;;;;;4.50;3.17;;;;;;;;;;5097632;28;20247;-66
2021/09/01 02:42:48;;;;;;;4.13;2.93;;;;;;;;;;5113012;28;20215;-66
2021/09/01 02:45:17;;;;;;;5.63;3.50;;;;;;;;;;5117940;28;20722;-66
2021/09/01 02:47:46;;;;;;;9.07;4.97;;;;;;;;;;5116798;28;20217;-66
2021/09/01 02:50:14;;;;;;;5.57;3.97;;;;;;;;;;5107557;28;20240;-66
2021/09/01 02:52:43;;;;;;;5.43;3.63;;;;;;;;;;5107517;28;20232;-66
2021/09/01 02:55:12;;;;;;;4.50;3.50;;;;;;;;;;5117682;28;20353;-66
2021/09/01 02:57:40;;;;;;;4.77;4.07;;;;;;;;;;5113174;28;20204;-66
2021/09/01 03:00:09;;;;;;;5.57;4.97;;;;;;;;;;5099216;28;20197;-66
2021/09/01 03:02:37;;;;;;;6.37;4.00;;;;;;;;;;5116618;28;20200;-66
2021/09/01 03:05:06;;;;;;;4.37;3.90;;;;;;;;;;5107655;28;20275;-66
2021/09/01 03:07:33;;;;;;;4.97;3.60;;;;;;;;;;5118068;28;20211;-66
2021/09/01 03:10:03;;;;;;;6.53;3.83;;;;;;;;;;5118603;28;20224;-66
2021/09/01 03:12:31;;;;;;;4.50;4.10;;;;;;;;;;5120254;28;20211;-66
2021/09/01 03:15:00;;;;;;;5.83;4.00;;;;;;;;;;5121941;28;20687;-66
2021/09/01 03:17:29;;;;;;;5.03;3.83;;;;;;;;;;5117989;28;20207;-66
2021/09/01 03:19:57;;;;;;;4.60;3.90;;;;;;;;;;5111589;28;20195;-66
2021/09/01 03:22:25;;;;;;;5.60;4.03;;;;;;;;;;5105611;28;20203;-66
2021/09/01 03:24:53;;;;;;;4.87;3.67;;;;;;;;;;5116261;28;20232;-66
2021/09/01 03:27:22;;;;;;;5.50;4.40;;;;;;;;;;5101996;28;20248;-66
2021/09/01 03:29:50;;;;;;;5.27;4.27;;;;;;;;;;5121605;28;20216;-66
2021/09/01 03:32:18;;;;;;;5.30;4.40;;;;;;;;;;5119864;28;20542;-66
2021/09/01 03:34:46;;;;;;;4.63;4.20;;;;;;;;;;5108527;27;20221;-66
2021/09/01 03:37:14;;;;;;;4.20;3.80;;;;;;;;;;5104252;28;20198;-66
2021/09/01 03:39:42;;;;;;;4.97;4.13;;;;;;;;;;5121364;28;20205;-66
2021/09/01 03:42:10;;;;;;;4.73;4.20;;;;;;;;;;5107173;28;20201;-66
2021/09/01 03:44:39;;;;;;;7.03;4.07;;;;;;;;;;5100895;28;20312;-66
2021/09/01 03:47:07;;;;;;;5.00;4.17;;;;;;;;;;5100374;28;20564;-66
2021/09/01 03:49:35;;;;;;;5.30;4.20;;;;;;;;;;5120897;28;20200;-66
2021/09/01 03:52:04;;;;;;;5.93;3.80;;;;;;;;;;5110056;28;20235;-66
2021/09/01 03:54:32;;;;;;;6.67;4.80;;;;;;;;;;5119803;28;20228;-66
2021/09/01 03:57:00;;;;;;;7.30;3.93;;;;;;;;;;5120787;28;20221;-66
2021/09/01 03:59:28;;;;;;;5.00;4.23;;;;;;;;;;5119860;28;20569;-67
2021/09/01 04:01:57;;;;;;;5.27;4.00;;;;;;;;;;5120856;28;20205;-65
2021/09/01 04:04:25;;;;;;;5.00;3.70;;;;;;;;;;5098245;28;20221;-67
2021/09/01 04:06:53;;;;;;;5.97;4.40;;;;;;;;;;5100157;28;20221;-65
2021/09/01 04:09:21;;;;;;;6.83;5.23;;;;;;;;;;5107005;28;20756;-65
2021/09/01 04:11:49;;;;;;;4.50;3.60;;;;;;;;;;5107816;28;20586;-65
2021/09/01 04:14:17;;;;;;;4.53;4.10;;;;;;;;;;5106492;28;20221;-67
2021/09/01 04:16:45;;;;;;;6.43;4.80;;;;;;;;;;5108578;28;20671;-66
2021/09/01 04:19:14;;;;;;;6.77;4.53;;;;;;;;;;5107110;28;20660;-67
2021/09/01 04:21:42;;;;;;;6.13;4.70;;;;;;;;;;5107731;28;20219;-67
2021/09/01 04:24:10;;;;;;;5.63;4.37;;;;;;;;;;5109329;28;20216;-66
2021/09/01 04:26:38;;;;;;;5.40;4.90;;;;;;;;;;5106911;28;20201;-66
2021/09/01 04:29:06;;;;;;;6.10;5.10;;;;;;;;;;5109795;28;20201;-67
2021/09/01 04:31:34;;;;;;;6.57;4.60;;;;;;;;;;5106372;28;20221;-66
2021/09/01 04:34:03;;;;;;;6.50;4.93;;;;;;;;;;5108118;28;20225;-64
2021/09/01 04:36:33;;;;;;;9.40;4.87;;;;;;;;;;5107014;28;20198;-66
2021/09/01 04:39:01;;;;;;;9.37;5.17;;;;;;;;;;5108119;28;20201;-67
2021/09/01 04:41:29;;;;;;;6.10;4.53;;;;;;;;;;5106611;28;20197;-67
2021/09/01 04:43:57;;;;;;;6.33;4.73;;;;;;;;;;5106665;28;20673;-67
2021/09/01 04:46:25;;;;;;;4.67;4.17;;;;;;;;;;5102452;28;20211;-67
2021/09/01 04:48:53;;;;;;;5.97;5.10;;;;;;;;;;5100083;28;20641;-67
2021/09/01 04:51:20;;;;;;;4.60;4.20;;;;;;;;;;5099420;28;20244;-67
2021/09/01 04:53:50;;;;;;;7.97;4.93;;;;;;;;;;5098564;28;20309;-65
2021/09/01 04:56:18;;;;;;;4.80;4.30;;;;;;;;;;5099473;28;20270;-67
2021/09/01 04:58:46;;;;;;;8.30;4.90;;;;;;;;;;5111878;28;20204;-67
2021/09/01 05:01:14;;;;;;;9.13;4.70;;;;;;;;;;5119796;27;20205;-67
2021/09/01 05:03:42;;;;;;;7.30;5.07;;;;;;;;;;5104066;28;20229;-68
2021/09/01 05:06:10;;;;;;;7.93;5.07;;;;;;;;;;5110697;28;20571;-69
2021/09/01 05:08:38;;;;;;;15.63;4.90;;;;;;;;;;5106310;27;20561;-67
2021/09/01 05:11:07;;;;;;;9.17;4.97;;;;;;;;;;5105023;28;20221;-67
2021/09/01 05:13:36;;;;;;;7.80;4.70;;;;;;;;;;5106494;27;20216;-67
2021/09/01 05:16:04;;;;;;;7.00;4.80;;;;;;;;;;5111841;28;20211;-67
2021/09/01 05:18:32;;;;;;;6.97;5.13;;;;;;;;;;5106080;27;20649;-67
2021/09/01 05:21:00;;;;;;;8.73;4.87;;;;;;;;;;5110454;28;20192;-67
2021/09/01 05:23:31;;;;;;;10.23;5.97;;;;;;;;;;5110448;28;20210;-67
2021/09/01 05:26:00;;;;;;;7.40;5.17;;;;;;;;;;5112451;27;20280;-67
2021/09/01 05:28:30;;;;;;;7.27;6.07;;;;;;;;;;5106123;28;20205;-67
2021/09/01 05:30:59;;;;;;;8.57;5.70;;;;;;;;;;5096948;28;20217;-65
2021/09/01 05:33:28;;;;;;;7.30;5.23;;;;;;;;;;5099470;28;20205;-65
2021/09/01 05:35:56;;;;;;;6.73;5.23;;;;;;;;;;5105991;28;20212;-66
2021/09/01 05:38:24;;;;;;;7.83;6.20;;;;;;;;;;5112898;28;20204;-66
2021/09/01 05:40:54;;;;;;;7.57;6.30;;;;;;;;;;5103486;27;20285;-66
2021/09/01 05:43:22;;;;;;;7.47;5.50;;;;;;;;;;5111722;28;20204;-67
2021/09/01 05:45:51;;;;;;;8.93;5.53;;;;;;;;;;5107528;28;20211;-67
2021/09/01 05:48:20;;;;;;;7.20;5.80;;;;;;;;;;5108879;28;20251;-64
2021/09/01 05:50:51;;;;;;;8.10;5.37;;;;;;;;;;5106477;28;20324;-67
2021/09/01 05:53:19;;;;;;;8.73;5.93;;;;;;;;;;5097763;28;20607;-66
2021/09/01 05:55:49;;;;;;;8.23;6.87;;;;;;;;;;5097167;28;20696;-66
2021/09/01 05:58:19;;;;;;;12.73;9.47;;;;;;;;;;5100782;28;20208;-65
2021/09/01 06:00:53;;;;;;;7.67;5.50;;;;;;;;;;5102435;28;20236;-65
2021/09/01 06:03:25;;;;;;;9.80;6.27;;;;;;;;;;5107218;28;20239;-68
2021/09/01 06:05:54;;;;;;;8.43;5.77;;;;;;;;;;5096967;28;20197;-66
2021/09/01 06:08:23;;;;;;;8.27;6.13;;;;;;;;;;5097841;28;20723;-67
2021/09/01 06:10:53;;;;;;;6.93;5.93;;;;;;;;;;5097106;28;20206;-67
2021/09/01 06:13:21;;;;;;;9.90;5.90;;;;;;;;;;5097474;28;20213;-70
2021/09/01 06:15:50;;;;;;;6.93;6.07;;;;;;;;;;5097350;28;20266;-67
2021/09/01 06:18:18;;;;;;;6.97;5.37;;;;;;;;;;5098065;28;20553;-66
2021/09/01 06:20:48;;;;;;;7.97;5.50;;;;;;;;;;5109423;28;20222;-67
2021/09/01 06:23:16;;;;;;;8.57;6.07;;;;;;;;;;5105279;28;20205;-68
2021/09/01 06:25:44;;;;;;;8.43;5.73;;;;;;;;;;5104171;28;20278;-66
2021/09/01 06:28:14;;;;;;;7.80;5.60;;;;;;;;;;5101959;28;20668;-68
2021/09/01 06:30:42;;;;;;;8.50;5.20;;;;;;;;;;5101186;28;20208;-67
2021/09/01 06:33:10;;;;;;;7.80;5.27;;;;;;;;;;5099338;28;20229;-67
2021/09/01 06:35:38;;;;;;;9.67;6.07;;;;;;;;;;5099989;28;20228;-66
2021/09/01 06:38:09;;;;;;;7.87;5.53;;;;;;;;;;5100686;28;20267;-67
2021/09/01 06:40:37;;;;;;;7.27;6.40;;;;;;;;;;5112483;28;20212;-66
2021/09/01 06:43:05;;;;;;;6.63;5.63;;;;;;;;;;5112720;28;20204;-68
2021/09/01 06:45:45;;;;;;;7.97;6.00;;;;;;;;;;5113664;28;20220;-67
2021/09/01 06:48:13;;;;;;;8.43;6.00;;;;;;;;;;5116361;28;20204;-70
2021/09/01 06:50:41;;;;;;;6.63;5.63;;;;;;;;;;5115325;28;20244;-65
2021/09/01 06:53:12;;;;;;;9.40;5.73;;;;;;;;;;5103215;28;20692;-68
2021/09/01 06:55:40;;;;;;;9.30;6.33;;;;;;;;;;5106468;28;20567;-69
2021/09/01 06:58:19;;;;;;;7.30;6.13;;;;;;;;;;5117094;28;20212;-69
2021/09/01 07:00:47;;;;;;;7.47;6.07;;;;;;;;;;5107289;28;20209;-69
2021/09/01 07:03:15;;;;;;;9.30;6.10;;;;;;;;;;5104908;28;20201;-67
2021/09/01 07:05:44;;;;;;;7.20;5.90;;;;;;;;;;5113363;28;20256;-65
2021/09/01 07:08:15;;;;;;;6.77;6.00;;;;;;;;;;5107486;28;20244;-66
2021/09/01 07:10:44;;;;;;;8.83;6.30;;;;;;;;;;5108482;28;20237;-66
2021/09/01 07:13:13;;;;;;;8.47;5.97;;;;;;;;;;5106600;28;20294;-67
2021/09/01 07:15:41;;;;;;;8.03;6.00;;;;;;;;;;5111333;28;20281;-69
2021/09/01 07:18:09;;;;;;;8.10;5.80;;;;;;;;;;5114701;28;20208;-68
2021/09/01 07:20:37;;;;;;;7.90;5.70;;;;;;;;;;5109798;28;20197;-68
2021/09/01 07:23:06;;;;;;;8.10;7.30;;;;;;;;;;5108545;28;20196;-70
2021/09/01 07:25:38;;;;;;;7.77;5.60;;;;;;;;;;5111792;28;20229;-68
2021/09/01 07:28:06;;;;;;;7.30;5.17;;;;;;;;;;5111982;28;20237;-70
2021/09/01 07:30:35;;;;;;;8.63;5.67;;;;;;;;;;5104955;28;20221;-70
2021/09/01 07:33:03;;;;;;;9.93;5.90;;;;;;;;;;5109392;28;20761;-70
2021/09/01 07:35:31;;;;;;;6.20;5.43;;;;;;;;;;5106824;28;20626;-69
2021/09/01 07:37:59;;;;;;;6.63;5.93;;;;;;;;;;5106328;28;20687;-70
2021/09/01 07:40:28;;;;;;;6.07;5.13;;;;;;;;;;5105069;28;20248;-68
2021/09/01 07:42:58;;;;;;;7.03;5.67;;;;;;;;;;5100206;28;20554;-69
2021/09/01 07:45:26;;;;;;;10.83;6.20;;;;;;;;;;5099890;28;20708;-70
2021/09/01 07:47:55;;;;;;;6.40;5.37;;;;;;;;;;5100392;28;20208;-68
2021/09/01 07:50:25;;;;;;;8.03;6.23;;;;;;;;;;5110929;28;20297;-68
2021/09/01 07:52:53;;;;;;;11.87;5.93;;;;;;;;;;5110935;28;20296;-69
2021/09/01 07:55:21;;;;;;;8.87;6.23;;;;;;;;;;5110976;28;20234;-69
2021/09/01 07:57:49;;;;;;;7.77;5.80;;;;;;;;;;5109251;28;20624;-67
2021/09/01 08:00:18;;;;;;;7.80;5.67;;;;;;;;;;5108752;28;20292;-68
2021/09/01 08:02:46;;;;;;;6.93;5.30;;;;;;;;;;5111999;28;20208;-68
2021/09/01 08:05:15;;;;;;;5.80;5.20;;;;;;;;;;5111459;28;20225;-68
2021/09/01 08:07:43;;;;;;;6.50;5.53;;;;;;;;;;5113439;28;20296;-69
2021/09/01 08:10:12;;;;;;;9.43;5.03;;;;;;;;;;5115518;28;20236;-68
2021/09/01 08:12:40;;;;;;;7.57;5.37;;;;;;;;;;5113780;28;20225;-69
2021/09/01 08:15:09;;;;;;;6.20;4.93;;;;;;;;;;5101745;28;20225;-69
2021/09/01 08:17:39;;;;;;;7.30;5.53;;;;;;;;;;5102635;28;20267;-69
2021/09/01 08:20:08;;;;;;;10.53;5.30;;;;;;;;;;5106414;28;20201;-69
2021/09/01 08:22:36;;;;;;;6.00;4.87;;;;;;;;;;5104705;28;20193;-71
2021/09/01 08:25:04;;;;;;;7.00;4.83;;;;;;;;;;5106717;28;20221;-70
2021/09/01 08:27:34;;;;;;;9.80;5.40;;;;;;;;;;5107042;28;20200;-70
2021/09/01 08:30:02;;;;;;;8.47;4.60;;;;;;;;;;5106358;28;20577;-69
2021/09/01 08:32:31;;;;;;;8.47;4.97;;;;;;;;;;5111238;28;20304;-69
2021/09/01 08:35:00;;;;;;;5.93;5.33;;;;;;;;;;5108698;28;20222;-67
2021/09/01 08:37:29;;;;;;;5.20;4.70;;;;;;;;;;5105717;28;20228;-69
2021/09/01 08:39:57;;;;;;;5.33;4.47;;;;;;;;;;5105570;28;20205;-70
2021/09/01 08:42:25;;;;;;;6.17;5.27;;;;;;;;;;5105953;28;20204;-68
2021/09/01 08:44:53;;;;;;;7.23;5.73;;;;;;;;;;5106508;28;20304;-69
2021/09/01 08:47:22;;;;;;;6.47;4.93;;;;;;;;;;5108002;28;20236;-70
2021/09/01 08:49:50;;;;;;;7.93;5.27;;;;;;;;;;5109141;28;20228;-71
2021/09/01 08:52:20;;;;;;;9.13;5.03;;;;;;;;;;5109949;28;20228;-69
2021/09/01 08:54:48;;;;;;;5.27;4.73;;;;;;;;;;5109353;28;20221;-70
2021/09/01 08:57:16;;;;;;;7.83;4.77;;;;;;;;;;5104485;28;20258;-70
2021/09/01 08:59:44;;;;;;;5.63;4.37;;;;;;;;;;5099125;28;20201;-69
2021/09/01 09:02:12;;;;;;;5.63;4.73;;;;;;;;;;5098831;28;20236;-69
2021/09/01 09:04:41;;;;;;;4.87;4.30;;;;;;;;;;5098756;28;20221;-70
2021/09/01 09:07:10;;;;;;;7.70;4.53;;;;;;;;;;5097461;28;20255;-70
2021/09/01 09:09:40;;;;;;;6.33;4.67;;;;;;;;;;5103372;28;20208;-70
2021/09/01 09:12:09;;;;;;;6.67;5.00;;;;;;;;;;5109446;28;20208;-69
2021/09/01 09:14:39;;;;;;;6.40;4.83;;;;;;;;;;5115994;28;20236;-70
2021/09/01 09:17:09;;;;;;;9.53;4.33;;;;;;;;;;5116622;28;20713;-69
2021/09/01 09:19:44;;;;;;;8.97;5.17;;;;;;;;;;5112179;28;20202;-70
2021/09/01 09:22:13;;;;;;;43.47;8.73;;;;;;;;;;5100184;28;20288;-69
2021/09/01 09:24:42;;;;;;;85.00;11.17;;;;;;;;;;5113007;28;20232;-67
2021/09/01 09:27:10;;;;;;;35.30;8.67;;;;;;;;;;5099374;28;20296;-69
2021/09/01 09:29:39;;;;;;;33.50;7.77;;;;;;;;;;5105715;28;20215;-70
2021/09/01 09:32:10;;;;;;;18.27;5.60;;;;;;;;;;5102659;28;20205;-70
2021/09/01 09:34:39;;;;;;;15.03;5.90;;;;;;;;;;5105785;28;20314;-70
2021/09/01 09:37:09;;;;;;;17.63;5.10;;;;;;;;;;5113892;28;20209;-68
2021/09/01 09:39:38;;;;;;;7.57;4.40;;;;;;;;;;5106892;28;20215;-70
2021/09/01 09:42:08;;;;;;;6.00;4.50;;;;;;;;;;5102082;28;20210;-66
2021/09/01 09:44:37;;;;;;;6.40;4.43;;;;;;;;;;5106800;28;20266;-68
2021/09/01 09:47:05;;;;;;;5.87;4.47;;;;;;;;;;5106849;28;20205;-68
2021/09/01 09:49:34;;;;;;;5.60;4.30;;;;;;;;;;5109132;27;20201;-68
2021/09/01 09:52:13;;;;;;;6.03;4.83;;;;;;;;;;5104969;28;20239;-68
2021/09/01 09:54:41;;;;;;;6.27;4.83;;;;;;;;;;5106475;28;20309;-70
2021/09/01 09:57:11;;;;;;;5.00;4.50;;;;;;;;;;5106570;28;20657;-69
2021/09/01 09:59:44;;;;;;;8.87;4.27;;;;;;;;;;5111608;28;20254;-71
2021/09/01 10:02:12;;;;;;;5.83;4.17;;;;;;;;;;5110291;28;20232;-68
2021/09/01 10:04:40;;;;;;;9.07;4.20;;;;;;;;;;5104783;28;20627;-70
2021/09/01 10:07:08;;;;;;;7.83;4.50;;;;;;;;;;5112854;28;20259;-69
2021/09/01 10:09:37;;;;;;;7.80;4.53;;;;;;;;;;5107253;28;20287;-74
2021/09/01 10:12:06;;;;;;;6.77;4.53;;;;;;;;;;5106915;28;20292;-69
2021/09/01 10:14:35;;;;;;;6.50;4.13;;;;;;;;;;5097514;28;20229;-69
2021/09/01 10:17:06;;;;;;;4.33;3.93;;;;;;;;;;5101809;28;20660;-69
2021/09/01 10:19:35;;;;;;;4.53;4.10;;;;;;;;;;5107507;28;20258;-70
2021/09/01 10:22:04;;;;;;;6.50;4.43;;;;;;;;;;5107933;28;20292;-69
2021/09/01 10:24:33;;;;;;;8.07;4.47;;;;;;;;;;5108354;28;20260;-68
2021/09/01 10:27:09;;;;;;;6.20;3.63;;;;;;;;;;5102096;28;20202;-69
2021/09/01 10:29:39;;;;;;;4.00;3.50;;;;;;;;;;5105570;28;20738;-68
2021/09/01 10:32:21;;;;;;;9.93;4.83;;;;;;;;;;5101548;28;20197;-69
2021/09/01 10:34:49;;;;;;;6.70;4.47;;;;;;;;;;5103476;28;20278;-70
2021/09/01 10:37:36;;;;;;;6.20;3.90;;;;;;;;;;5112526;28;20207;-70
2021/09/01 10:40:04;;;;;;;4.40;3.80;;;;;;;;;;5109453;28;20672;-70
2021/09/01 10:42:37;;;;;;;5.00;4.03;;;;;;;;;;5105702;28;20207;-70
2021/09/01 10:45:08;;;;;;;4.40;3.63;;;;;;;;;;5105474;28;20225;-70
2021/09/01 10:47:55;;;;;;;5.47;4.07;;;;;;;;;;5103784;28;20202;-67
2021/09/01 10:50:29;;;;;;;4.30;3.87;;;;;;;;;;5111811;28;20232;-68
2021/09/01 10:52:58;;;;;;;6.73;3.70;;;;;;;;;;5108885;28;20668;-68
2021/09/01 10:55:26;;;;;;;4.13;3.73;;;;;;;;;;5103432;28;20220;-70
2021/09/01 10:58:15;;;;;;;4.17;3.77;;;;;;;;;;5110403;28;20717;-71
2021/09/01 11:00:44;;;;;;;4.83;4.33;;;;;;;;;;5104655;28;20201;-67
2021/09/01 11:03:12;;;;;;;5.33;4.33;;;;;;;;;;5103274;28;20204;-69
2021/09/01 11:05:41;;;;;;;7.53;3.90;;;;;;;;;;5102538;28;20648;-69
2021/09/01 11:08:15;;;;;;;6.27;4.20;;;;;;;;;;5108097;28;20197;-71
2021/09/01 11:10:54;;;;;;;3.93;3.47;;;;;;;;;;5105174;28;20212;-70
2021/09/01 11:13:22;;;;;;;3.83;3.40;;;;;;;;;;5106677;28;20285;-69
2021/09/01 11:15:52;;;;;;;5.83;4.10;;;;;;;;;;5116091;28;20201;-70
2021/09/01 11:18:20;;;;;;;5.60;3.77;;;;;;;;;;5108079;28;20193;-70
2021/09/01 11:20:54;;;;;;;4.77;3.67;;;;;;;;;;5110082;28;20200;-69
2021/09/01 11:23:26;;;;;;;5.17;3.87;;;;;;;;;;5112968;28;20217;-69
2021/09/01 11:25:55;;;;;;;5.00;3.73;;;;;;;;;;5101422;28;20209;-68
2021/09/01 11:28:23;;;;;;;3.70;3.30;;;;;;;;;;5106042;28;20292;-68
2021/09/01 11:30:53;;;;;;;5.73;4.83;;;;;;;;;;5099607;28;20204;-69
2021/09/01 11:33:21;;;;;;;3.80;3.40;;;;;;;;;;5099287;28;20210;-71
2021/09/01 11:35:49;;;;;;;3.60;3.30;;;;;;;;;;5112522;28;20231;-70
2021/09/01 11:38:17;;;;;;;3.87;3.50;;;;;;;;;;5113661;28;20290;-70
2021/09/01 11:40:49;;;;;;;3.87;3.43;;;;;;;;;;5110547;28;20206;-70
2021/09/01 11:43:20;;;;;;;5.93;3.77;;;;;;;;;;5107966;28;20256;-73
2021/09/01 11:45:49;;;;;;;3.63;3.33;;;;;;;;;;5104200;28;20285;-70
2021/09/01 11:48:18;;;;;;;4.07;3.30;;;;;;;;;;5107821;28;20204;-69
2021/09/01 11:50:47;;;;;;;3.80;3.30;;;;;;;;;;5110905;28;20229;-68
2021/09/01 11:53:39;;;;;;;4.13;3.63;;;;;;;;;;5113914;28;20233;-69
2021/09/01 11:56:07;;;;;;;3.90;3.13;;;;;;;;;;5109909;28;20292;-69
2021/09/01 11:58:35;;;;;;;4.83;3.13;;;;;;;;;;5106430;28;20251;-69
2021/09/01 12:01:04;;;;;;;3.90;3.50;;;;;;;;;;5107217;28;20206;-70
2021/09/01 12:03:33;;;;;;;6.37;3.33;;;;;;;;;;5110013;28;20205;-70
2021/09/01 12:06:21;;;;;;;6.90;3.37;;;;;;;;;;5108725;28;20222;-70
2021/09/01 12:08:51;;;;;;;3.50;3.20;;;;;;;;;;5108074;28;20206;-70
2021/09/01 12:11:18;;;;;;;3.20;2.70;;;;;;;;;;5111057;28;20198;-67
2021/09/01 12:13:47;;;;;;;3.07;2.83;;;;;;;;;;5109028;28;20305;-66
2021/09/01 12:16:16;;;;;;;3.30;3.10;;;;;;;;;;5098938;28;20702;-66
2021/09/01 12:18:55;;;;;;;3.00;2.70;;;;;;;;;;5099146;28;20205;-66
2021/09/01 12:21:24;;;;;;;3.30;3.00;;;;;;;;;;5107865;28;20218;-66
2021/09/01 12:24:07;;;;;;;4.60;2.80;;;;;;;;;;5105986;28;20217;-67
2021/09/01 12:26:44;;;;;;;4.73;2.70;;;;;;;;;;5106338;28;20795;-66
2021/09/01 12:29:23;;;;;;;4.10;3.50;;;;;;;;;;5105642;28;20209;-66
2021/09/01 12:31:51;;;;;;;6.20;4.10;;;;;;;;;;5104925;28;20551;-66
2021/09/01 12:34:26;;;;;;;3.70;3.13;;;;;;;;;;5108288;28;20214;-65
2021/09/01 12:36:58;;;;;;;5.30;3.57;;;;;;;;;;5108286;28;20542;-66
2021/09/01 12:39:26;;;;;;;4.43;3.20;;;;;;;;;;5106463;28;20264;-66
2021/09/01 12:41:54;;;;;;;5.07;3.00;;;;;;;;;;5098555;28;20285;-66
2021/09/01 12:44:22;;;;;;;3.80;3.00;;;;;;;;;;5099375;28;20221;-66
2021/09/01 12:46:50;;;;;;;3.10;2.80;;;;;;;;;;5100073;28;20201;-66
2021/09/01 12:49:26;;;;;;;6.03;3.23;;;;;;;;;;5112439;28;20221;-66
2021/09/01 12:51:54;;;;;;;2.90;2.70;;;;;;;;;;5099571;28;20600;-66
2021/09/01 12:54:23;;;;;;;5.13;3.33;;;;;;;;;;5111829;28;20717;-65
2021/09/01 12:56:51;;;;;;;4.47;2.73;;;;;;;;;;5119590;28;20208;-64
2021/09/01 12:59:19;;;;;;;4.23;3.40;;;;;;;;;;5105226;28;20193;-65
2021/09/01 13:01:47;;;;;;;4.40;2.90;;;;;;;;;;5107252;28;20203;-66
2021/09/01 13:04:16;;;;;;;5.90;3.23;;;;;;;;;;5099257;28;20304;-67
2021/09/01 13:06:45;;;;;;;3.03;2.70;;;;;;;;;;5099495;28;20202;-66
2021/09/01 13:09:13;;;;;;;3.80;2.70;;;;;;;;;;5098864;28;20206;-66
2021/09/01 13:11:41;;;;;;;5.47;3.03;;;;;;;;;;5099143;28;20206;-66
2021/09/01 13:14:09;;;;;;;5.43;3.30;;;;;;;;;;5102232;28;20249;-66
2021/09/01 13:16:37;;;;;;;4.47;3.20;;;;;;;;;;5105800;28;20707;-66
2021/09/01 13:19:05;;;;;;;3.33;3.03;;;;;;;;;;5107787;28;20205;-65
2021/09/01 13:21:33;;;;;;;7.20;3.20;;;;;;;;;;5114541;28;20217;-66
2021/09/01 13:24:02;;;;;;;4.20;3.33;;;;;;;;;;5117593;28;20217;-67
2021/09/01 13:26:30;;;;;;;3.23;2.70;;;;;;;;;;5098441;28;20205;-66
2021/09/01 13:28:59;;;;;;;3.27;2.80;;;;;;;;;;5098365;28;20208;-63
2021/09/01 13:31:27;;;;;;;5.33;3.63;;;;;;;;;;5097070;28;20202;-72
2021/09/01 13:33:55;;;;;;;3.20;2.80;;;;;;;;;;5111317;28;20309;-72
2021/09/01 13:36:23;;;;;;;3.17;2.60;;;;;;;;;;5119020;28;20416;-71
2021/09/01 13:38:51;;;;;;;3.00;2.63;;;;;;;;;;5113539;28;20262;-73
2021/09/01 13:41:21;;;;;;;5.73;3.40;;;;;;;;;;5109105;28;20202;-72
2021/09/01 13:43:49;;;;;;;3.90;3.00;;;;;;;;;;5116551;28;20223;-74
2021/09/01 13:46:17;;;;;;;5.07;2.90;;;;;;;;;;5106592;28;20204;-74
2021/09/01 13:48:45;;;;;;;4.50;3.00;;;;;;;;;;5103946;28;20271;-70
2021/09/01 13:51:13;;;;;;;4.00;2.93;;;;;;;;;;5106928;28;20710;-68
2021/09/01 13:53:41;;;;;;;3.50;2.53;;;;;;;;;;5108348;28;20666;-69
2021/09/01 13:56:09;;;;;;;4.43;4.03;;;;;;;;;;5102431;28;20738;-69
2021/09/01 13:58:38;;;;;;;3.13;2.83;;;;;;;;;;5107227;28;20206;-69
2021/09/01 14:01:06;;;;;;;3.60;2.87;;;;;;;;;;5104729;28;20204;-69
2021/09/01 14:03:35;;;;;;;3.20;2.63;;;;;;;;;;5097161;28;20204;-68
2021/09/01 14:06:04;;;;;;;3.73;2.70;;;;;;;;;;5095958;28;20202;-67
2021/09/01 14:08:31;;;;;;;2.83;2.60;;;;;;;;;;5097456;28;20207;-68
2021/09/01 14:11:00;;;;;;;4.30;2.77;;;;;;;;;;5115686;28;20204;-69
2021/09/01 14:13:27;;;;;;;4.57;2.87;;;;;;;;;;5106372;28;20281;-67
2021/09/01 14:15:57;;;;;;;4.13;2.57;;;;;;;;;;5103459;28;20221;-71
2021/09/01 14:18:25;;;;;;;9.40;3.70;;;;;;;;;;5114978;28;20201;-70
2021/09/01 14:20:53;;;;;;;3.70;3.07;;;;;;;;;;5103214;28;20216;-69
2021/09/01 14:23:21;;;;;;;3.90;2.60;;;;;;;;;;5099765;28;20209;-69
2021/09/01 14:25:49;;;;;;;3.37;3.07;;;;;;;;;;5097614;28;20209;-69
2021/09/01 14:28:17;;;;;;;3.33;2.77;;;;;;;;;;5104505;28;20209;-69
2021/09/01 14:30:45;;;;;;;2.60;2.40;;;;;;;;;;5117679;28;20204;-69
2021/09/01 14:33:14;;;;;;;3.63;2.63;;;;;;;;;;5114844;28;20204;-68
2021/09/01 14:35:42;;;;;;;3.20;2.90;;;;;;;;;;5117065;28;20222;-68
2021/09/01 14:38:11;;;;;;;2.83;2.30;;;;;;;;;;5118864;28;20284;-69
2021/09/01 14:40:39;;;;;;;4.00;2.73;;;;;;;;;;5116768;28;20203;-68
2021/09/01 14:43:08;;;;;;;4.10;2.50;;;;;;;;;;5117925;28;20215;-69
2021/09/01 14:45:36;;;;;;;3.73;2.10;;;;;;;;;;5115825;28;20716;-68
2021/09/01 14:48:04;;;;;;;2.87;2.67;;;;;;;;;;5116786;28;20207;-69
2021/09/01 14:50:34;;;;;;;4.77;3.00;;;;;;;;;;5110195;28;20320;-68
2021/09/01 14:53:02;;;;;;;4.57;2.63;;;;;;;;;;5097599;28;20675;-68
2021/09/01 14:55:30;;;;;;;2.57;2.37;;;;;;;;;;5112489;28;20649;-67